Terminal Aerodrome Forecast
Issued by NWS Wichita, KS

Home | Current Version | Previous Version | Graphics & Text | Print | Product List | Glossary On
Versions: 1 2 3 4 5 6 7 8 9 10 11 12 13 14 15 16 17 18 19 20 21 22 23 24
000
FTUS43 KICT 170244 AAB
TAFICT
TAF AMD
KICT 170244Z 1703/1724 12007KT P6SM SCT150
     FM170315 35014G22KT P6SM SCT150
     FM170600 02011KT P6SM VCSH SCT020 BKN070
     FM171200 03009KT P6SM OVC020
     FM171600 04007KT P6SM BKN030=

USA.gov is the U.S. government's official web portal to all federal, state and local government web resources and services.